地図

経路データ

SID SEASON NUMBER BASIN SUBBASIN NAME ISO_TIME NATURE LAT LON WMO_WIND WMO_PRES WMO_AGENCY TRACK_TYPE DIST2LAND LANDFALL IFLAG USA_AGENCY USA_ATCF_ID USA_LAT USA_LON USA_RECORD USA_STATUS USA_WIND USA_PRES USA_SSHS USA_R34_NE USA_R34_SE USA_R34_SW USA_R34_NW USA_R50_NE USA_R50_SE USA_R50_SW USA_R50_NW USA_R64_NE USA_R64_SE USA_R64_SW USA_R64_NW USA_POCI USA_ROCI USA_RMW USA_EYE TOKYO_LAT TOKYO_LON TOKYO_GRADE TOKYO_WIND TOKYO_PRES TOKYO_R50_DIR TOKYO_R50_LONG TOKYO_R50_SHORT TOKYO_R30_DIR TOKYO_R30_LONG TOKYO_R30_SHORT TOKYO_LAND CMA_LAT CMA_LON CMA_CAT CMA_WIND CMA_PRES HKO_LAT HKO_LON HKO_CAT HKO_WIND HKO_PRES NEWDELHI_LAT NEWDELHI_LON NEWDELHI_GRADE NEWDELHI_WIND NEWDELHI_PRES NEWDELHI_CI NEWDELHI_DP NEWDELHI_POCI REUNION_LAT REUNION_LON REUNION_TYPE REUNION_WIND REUNION_PRES REUNION_TNUM REUNION_CI REUNION_RMW REUNION_R34_NE REUNION_R34_SE REUNION_R34_SW REUNION_R34_NW REUNION_R50_NE REUNION_R50_SE REUNION_R50_SW REUNION_R50_NW REUNION_R64_NE REUNION_R64_SE REUNION_R64_SW REUNION_R64_NW BOM_LAT BOM_LON BOM_TYPE BOM_WIND BOM_PRES BOM_TNUM BOM_CI BOM_RMW BOM_R34_NE BOM_R34_SE BOM_R34_SW BOM_R34_NW BOM_R50_NE BOM_R50_SE BOM_R50_SW BOM_R50_NW BOM_R64_NE BOM_R64_SE BOM_R64_SW BOM_R64_NW BOM_ROCI BOM_POCI BOM_EYE BOM_POS_METHOD BOM_PRES_METHOD NADI_LAT NADI_LON NADI_CAT NADI_WIND NADI_PRES WELLINGTON_LAT WELLINGTON_LON WELLINGTON_WIND WELLINGTON_PRES DS824_LAT DS824_LON DS824_STAGE DS824_WIND DS824_PRES TD9636_LAT TD9636_LON TD9636_STAGE TD9636_WIND TD9636_PRES TD9635_LAT TD9635_LON TD9635_WIND TD9635_PRES TD9635_ROCI NEUMANN_LAT NEUMANN_LON NEUMANN_CLASS NEUMANN_WIND NEUMANN_PRES MLC_LAT MLC_LON MLC_CLASS MLC_WIND MLC_PRES USA_GUST BOM_GUST BOM_GUST_PER REUNION_GUST REUNION_GUST_PER USA_SEAHGT USA_SEARAD_NE USA_SEARAD_SE USA_SEARAD_SW USA_SEARAD_NW STORM_SPEED STORM_DIR
1903021S11064 1903 8 SI MM NOT_NAMED 1903-01-21 06:00:00 NR -11.1000 64.3000 reunion main 1230 1230 _____O________ -1 -11.1000 64.3000 99 9.90000 1 0
1903021S11064 1903 8 SI MM NOT_NAMED 1903-01-21 09:00:00 NR -11.1200 64.2754 main 1230 1224 _____P________ -1 -11.1200 64.2754 99 1 227
1903021S11064 1903 8 SI MM NOT_NAMED 1903-01-21 12:00:00 NR -11.1465 64.2471 main 1224 1214 _____P________ -1 -11.1465 64.2471 99 1 222
1903021S11064 1903 8 SI MM NOT_NAMED 1903-01-21 15:00:00 NR -11.1858 64.2117 main 1214 1214 _____P________ -1 -11.1858 64.2117 99 1 219
1903021S11064 1903 8 SI MM NOT_NAMED 1903-01-21 18:00:00 NR -11.2444 64.1655 main 1214 1199 _____P________ -1 -11.2444 64.1655 99 2 216
1903021S11064 1903 8 SI MM NOT_NAMED 1903-01-21 21:00:00 NR -11.3287 64.1048 main 1199 1184 _____P________ -1 -11.3287 64.1048 99 2 215
1903021S11064 1903 8 SI MM NOT_NAMED 1903-01-22 00:00:00 NR -11.4451 64.0261 main 1184 1159 _____P________ -1 -11.4451 64.0261 99 3 213
1903021S11064 1903 8 SI MM NOT_NAMED 1903-01-22 03:00:00 NR -11.6001 63.9258 main 1159 1134 _____P________ -1 -11.6001 63.9258 99 4 212
1903021S11064 1903 8 SI MM NOT_NAMED 1903-01-22 06:00:00 NR -11.8000 63.8000 reunion main 1134 1110 _____O________ -1 -11.8000 63.8000 99 9.90000 5 211
1903021S11064 1903 8 SI MM NOT_NAMED 1903-01-22 09:00:00 NR -12.0497 63.6462 main 1103 1070 _____P________ -1 -12.0497 63.6462 99 6 211
1903021S11064 1903 8 SI MM NOT_NAMED 1903-01-22 12:00:00 NR -12.3479 63.4663 main 1070 1020 _____P________ -1 -12.3479 63.4663 99 7 210
1903021S11064 1903 8 SI MM NOT_NAMED 1903-01-22 15:00:00 NR -12.6917 63.2632 main 1020 971 _____P________ -1 -12.6917 63.2632 99 8 210
1903021S11064 1903 8 SI MM NOT_NAMED 1903-01-22 18:00:00 NR -13.0785 63.0397 main 965 916 _____P________ -1 -13.0785 63.0397 99 9 209
1903021S11064 1903 8 SI MM NOT_NAMED 1903-01-22 21:00:00 NR -13.5054 62.7988 main 916 867 _____P________ -1 -13.5054 62.7988 99 10 208
1903021S11064 1903 8 SI MM NOT_NAMED 1903-01-23 00:00:00 NR -13.9697 62.5433 main 852 803 _____P________ -1 -13.9697 62.5433 99 11 208
1903021S11064 1903 8 SI MM NOT_NAMED 1903-01-23 03:00:00 NR -14.4688 62.2761 main 794 730 _____P________ -1 -14.4688 62.2761 99 12 207
1903021S11064 1903 8 SI MM NOT_NAMED 1903-01-23 06:00:00 NR -15.0000 62.0000 reunion main 730 666 _____O________ -1 -15.0000 62.0000 99 9.90000 12 206
1903021S11064 1903 8 SI MM NOT_NAMED 1903-01-23 09:00:00 NR -15.5817 61.7092 main 657 585 _____P________ -1 -15.5817 61.7092 99 13 205
1903021S11064 1903 8 SI MM NOT_NAMED 1903-01-23 12:00:00 NR -16.2064 61.4030 main 585 514 _____P________ -1 -16.2064 61.4030 99 14 205
1903021S11064 1903 8 SI MM NOT_NAMED 1903-01-23 15:00:00 NR -16.8589 61.0875 main 506 437 _____P________ -1 -16.8589 61.0875 99 15 205
1903021S11064 1903 8 SI MM NOT_NAMED 1903-01-23 18:00:00 NR -17.5238 60.7691 main 437 369 _____P________ -1 -17.5238 60.7691 99 15 204
1903021S11064 1903 8 SI MM NOT_NAMED 1903-01-23 21:00:00 NR -18.1856 60.4543 main 362 299 _____P________ -1 -18.1856 60.4543 99 14 204
1903021S11064 1903 8 SI MM NOT_NAMED 1903-01-24 00:00:00 NR -18.8290 60.1499 main 290 241 _____P________ -1 -18.8290 60.1499 99 14 204
1903021S11064 1903 8 SI MM NOT_NAMED 1903-01-24 03:00:00 NR -19.4389 59.8627 main 241 190 _____P________ -1 -19.4389 59.8627 99 13 204
1903021S11064 1903 8 SI MM NOT_NAMED 1903-01-24 06:00:00 NR -20.0000 59.6000 reunion main 190 167 _____O________ -1 -20.0000 59.6000 99 9.90000 11 203
1903021S11064 1903 8 SI MM NOT_NAMED 1903-01-24 09:00:00 NR -20.4454 59.4016 main 167 156 _____P________ -1 -20.4454 59.4016 99 9 202
1903021S11064 1903 8 SI MM NOT_NAMED 1903-01-24 12:00:00 NR -20.8451 59.2296 main 156 156 _____P________ -1 -20.8451 59.2296 99 8 202
1903021S11064 1903 8 SI MM NOT_NAMED 1903-01-24 15:00:00 NR -21.2102 59.0760 main 165 161 _____P________ -1 -21.2102 59.0760 99 8 201
1903021S11064 1903 8 SI MM NOT_NAMED 1903-01-24 18:00:00 NR -21.5518 58.9328 main 175 175 _____P________ -1 -21.5518 58.9328 99 7 202
1903021S11064 1903 8 SI MM NOT_NAMED 1903-01-24 21:00:00 NR -21.8806 58.7920 main 193 193 _____P________ -1 -21.8806 58.7920 99 7 202
1903021S11064 1903 8 SI MM NOT_NAMED 1903-01-25 00:00:00 NR -22.2077 58.6452 main 211 211 _____P________ -1 -22.2077 58.6452 99 7 203
1903021S11064 1903 8 SI MM NOT_NAMED 1903-01-25 03:00:00 NR -22.5439 58.4840 main 238 238 _____P________ -1 -22.5439 58.4840 99 8 205
1903021S11064 1903 8 SI MM NOT_NAMED 1903-01-25 06:00:00 NR -22.9000 58.3000 reunion main 275 275 _____O________ -1 -22.9000 58.3000 99 9.90000 9 207
1903021S11064 1903 8 SI MM NOT_NAMED 1903-01-25 09:00:00 NR -23.3757 58.0282 main 325 325 _____P________ -1 -23.3757 58.0282 99 11 208
1903021S11064 1903 8 SI MM NOT_NAMED 1903-01-25 12:00:00 NR -23.8732 57.7308 main 349 349 _____P________ -1 -23.8732 57.7308 99 12 209
1903021S11064 1903 8 SI MM NOT_NAMED 1903-01-25 15:00:00 NR -24.3779 57.4180 main 382 382 _____P________ -1 -24.3779 57.4180 99 12 210
1903021S11064 1903 8 SI MM NOT_NAMED 1903-01-25 18:00:00 NR -24.8751 57.1002 main 420 420 _____P________ -1 -24.8751 57.1002 99 11 210
1903021S11064 1903 8 SI MM NOT_NAMED 1903-01-25 21:00:00 NR -25.3504 56.7882 main 463 460 _____P________ -1 -25.3504 56.7882 99 11 211
1903021S11064 1903 8 SI MM NOT_NAMED 1903-01-26 00:00:00 NR -25.7892 56.4933 main 500 500 _____P________ -1 -25.7892 56.4933 99 10 211
1903021S11064 1903 8 SI MM NOT_NAMED 1903-01-26 03:00:00 NR -26.1771 56.2266 main 539 539 _____P________ -1 -26.1771 56.2266 99 8 212
1903021S11064 1903 8 SI MM NOT_NAMED 1903-01-26 06:00:00 NR -26.5000 56.0000 reunion main 571 571 _____O________ -1 -26.5000 56.0000 99 9.90000 7 212
1903021S11064 1903 8 SI MM NOT_NAMED 1903-01-26 09:00:00 NR -26.7476 55.8222 main 592 592 _____P________ -1 -26.7476 55.8222 99 5 213
1903021S11064 1903 8 SI MM NOT_NAMED 1903-01-26 12:00:00 NR -26.9260 55.6901 main 614 614 _____P________ -1 -26.9260 55.6901 99 4 214
1903021S11064 1903 8 SI MM NOT_NAMED 1903-01-26 15:00:00 NR -27.0453 55.5975 main 625 625 _____P________ -1 -27.0453 55.5975 99 2 216
1903021S11064 1903 8 SI MM NOT_NAMED 1903-01-26 18:00:00 NR -27.1152 55.5381 main 637 637 _____P________ -1 -27.1152 55.5381 99 1 216
1903021S11064 1903 8 SI MM NOT_NAMED 1903-01-26 21:00:00 NR -27.1459 55.5053 main 637 637 _____P________ -1 -27.1459 55.5053 99 1 235
1903021S11064 1903 8 SI MM NOT_NAMED 1903-01-27 00:00:00 NR -27.1470 55.4924 main 637 637 _____P________ -1 -27.1470 55.4924 99 0 0
1903021S11064 1903 8 SI MM NOT_NAMED 1903-01-27 03:00:00 NR -27.1284 55.4929 main 637 637 _____P________ -1 -27.1284 55.4929 99 0 0
1903021S11064 1903 8 SI MM NOT_NAMED 1903-01-27 06:00:00 NR -27.1000 55.5000 reunion main 637 _____O________ -1 -27.1000 55.5000 99 9.90000 1 44

IBTrACS Databaseについて

本データベースは、米国NOAAが公開する1842年以降の世界の熱帯低気圧のベストトラックデータアーカイブInternational Best Track Archive for Climate Stewardship (IBTrACS)を、ウェブで閲覧しやすい形式に変換したものです。

最終更新日:2021-12-06